KMCO/MCO METAR and TAF weather

Enter ICAO airport designator
Station Type Date Time Source
KMCO METAR 2020/02/21 01:53 UTC NOAA

KMCO 210153Z 29009KT 10SM FEW029 FEW250 24/18 A3004 RMK AO2 SLP171 T02440183 $


Station Type Date Time Source
KMCO Decoded METAR 2020/02/21 01:53 UTC NOAA

ORLANDO INTERNATIONAL AIRPORT , FL, United States (KMCO) 28-25N 81-20W 29M
Feb 20, 2020 - 08:53 PM EST / 2020.02.21 0153 UTC
Wind: from the WNW (290 degrees) at 10 MPH (9 KT):0
Visibility: 10 mile(s):0
Sky conditions: mostly clear
Temperature: 75.9 F (24.4 C)
Dew Point: 64.9 F (18.3 C)
Relative Humidity: 68%
Pressure (altimeter): 30.04 in. Hg (1017 hPa)
ob: KMCO 210153Z 29009KT 10SM FEW029 FEW250 24/18 A3004 RMK AO2 SLP171 T02440183
cycle: 2

Station Type Date Time Source
KMCO TAF 2020/02/20 21:58 UTC NOAA

TAF
AMD KMCO 202057Z 2021/2124 23011KT P6SM SCT050 SCT250
FM210300 30009KT P6SM VCSH SCT004 BKN010
TEMPO 2108/2112 BKN006
FM211200 36015KT P6SM VCSH BKN010
FM211700 36019G27KT P6SM BKN020

Example: see airport list